Etusivu
METAR-TAF:

METAR-TAF

Lentoasemat :

Gulf Shores, Alabama, Yhdysvallat

Leveyspiiri: 30-17-23N, Pituuspiiri: 087-40-18W, korkeus merenpinnasta: 5 m

Tämänhetkinen sää

Tämä raportti tehtiin 17 minuuttia sitten, kello 01.55 UTC
tyyntä
Lämpötila 6°C
Kosteus 87%
Ilmanpaine 1025 hPa
Näkyvyys: 16.1 km
Pilvistä 4000 ft:n korkeudessa

METAR: KJKA 110155Z AUTO 00000KT 10SM OVC040 06/04 A3028 RMK AO2 T00580040

Aika: 20:12 (02:12 UTC)


TAF: puuttuu

Säähavainnot ja -ennusteet yli 4000 lentoasemalta (METAR- ja TAF-raportit).

Käytössä olevat sääasemat on merkitty karttaan keltaisilla ja punaisilla pisteillä.

Aseta hiiri pisteen päälle nähdäksesi sääaseman nimen.

Klikkaa sitten nähdäksesi säähavainnot ja -ennusteet.

Kartan vaihtaminen: klikkaa mustalla rastilla varustettuja vihreitä pisteitä, niin voit zoomata sisään; viivalla varustettua vihreää pistettä, niin voit zoomata ulos tai vihreitä nuolia, niin pääset viereisille kartoille.


METAR-TAF: